Time;durP1;ratioP1;P1;durP2;ratioP2;P2;SDS_P1;SDS_P2;PMS_P1;PMS_P2;Temp;Humidity;BMP_temperature;BMP_pressure;BME280_temperature;BME280_humidity;BME280_pressure;Samples;Min_cycle;Max_cycle;Signal;HPM_P1;HPM_P2
2022/07/09 00:01:15;;;;;;;5.80;4.00;;;;;;;13.58;79.46;99415.92;220038;1278;22569;-72
2022/07/09 00:06:18;;;;;;;7.20;3.80;;;;;;;13.55;79.58;99409.50;220149;1278;22570;-71
2022/07/09 00:11:21;;;;;;;5.00;4.30;;;;;;;13.51;79.72;99411.27;220241;1276;22539;-72
2022/07/09 00:16:29;;;;;;;8.50;4.80;;;;;;;13.48;79.72;99409.05;219998;1276;295943;-73
2022/07/09 00:21:37;;;;;;;7.60;4.60;;;;;;;13.45;79.87;99407.02;220253;1276;25293;-72
2022/07/09 00:26:40;;;;;;;9.30;4.70;;;;;;;13.42;79.86;99404.10;220406;1276;24284;-72
2022/07/09 00:31:50;;;;;;;11.10;5.10;;;;;;;13.39;79.94;99404.73;220253;1276;22587;-71
2022/07/09 00:36:56;;;;;;;7.80;4.50;;;;;;;13.36;79.98;99405.84;220124;1279;22527;-71
2022/07/09 00:42:11;;;;;;;8.00;4.70;;;;;;;13.34;80.16;99403.20;219838;1278;22566;-72
2022/07/09 00:47:13;;;;;;;7.30;4.50;;;;;;;13.31;80.11;99400.19;220017;1279;22576;-71
2022/07/09 00:52:38;;;;;;;8.10;4.00;;;;;;;13.27;80.11;99407.55;220123;1278;25432;-72
2022/07/09 00:57:42;;;;;;;6.70;4.50;;;;;;;13.25;80.14;99405.55;220095;1277;22476;-71
2022/07/09 01:02:46;;;;;;;6.90;4.20;;;;;;;13.22;80.14;99411.94;219792;1279;22607;-72
2022/07/09 01:07:49;;;;;;;9.60;4.50;;;;;;;13.18;80.16;99411.06;220107;1276;22578;-71
2022/07/09 01:12:55;;;;;;;7.40;4.40;;;;;;;13.10;80.24;99406.86;220120;1276;22559;-71
2022/07/09 01:17:58;;;;;;;6.80;3.80;;;;;;;13.01;80.14;99402.58;219903;1276;22568;-72
2022/07/09 01:23:01;;;;;;;7.30;4.10;;;;;;;12.90;80.22;99400.77;220136;1276;22620;-71
2022/07/09 01:28:05;;;;;;;7.50;4.50;;;;;;;12.79;80.26;99395.07;219860;1275;22625;-71
2022/07/09 01:33:08;;;;;;;8.40;3.80;;;;;;;12.67;80.43;99390.73;219804;1278;22605;-72
2022/07/09 01:38:13;;;;;;;8.40;4.20;;;;;;;12.58;80.60;99392.66;219729;1278;25378;-71
2022/07/09 01:43:36;;;;;;;5.60;4.40;;;;;;;12.46;80.67;99390.64;219644;1279;25362;-72
2022/07/09 01:48:42;;;;;;;8.20;4.30;;;;;;;12.33;80.84;99389.27;219826;1279;22547;-71
2022/07/09 01:53:47;;;;;;;7.40;4.60;;;;;;;12.24;81.16;99388.73;219926;1279;22724;-71
2022/07/09 01:58:50;;;;;;;8.00;4.80;;;;;;;12.13;81.32;99382.48;219972;1279;25375;-71
2022/07/09 02:03:52;;;;;;;6.90;4.40;;;;;;;12.05;81.72;99379.77;219888;1279;25325;-71
2022/07/09 02:08:55;;;;;;;5.60;4.30;;;;;;;11.96;81.73;99381.09;219313;1279;22754;-71
2022/07/09 02:13:58;;;;;;;9.80;4.50;;;;;;;11.88;81.86;99382.90;219952;1276;25318;-71
2022/07/09 02:19:03;;;;;;;6.50;4.50;;;;;;;11.81;82.01;99378.89;219879;1276;22608;-71
2022/07/09 02:24:06;;;;;;;10.50;4.90;;;;;;;11.77;82.36;99379.23;220018;1276;22591;-72
2022/07/09 02:29:08;;;;;;;9.10;4.80;;;;;;;11.77;82.52;99370.96;219853;1276;22576;-72
2022/07/09 02:34:20;;;;;;;8.30;4.50;;;;;;;11.77;82.67;99373.21;219939;1279;26487;-72
2022/07/09 02:39:22;;;;;;;6.60;4.90;;;;;;;11.79;82.68;99374.70;219897;1279;22685;-71
2022/07/09 02:44:25;;;;;;;10.00;5.20;;;;;;;11.85;82.90;99377.08;219777;1279;25476;-72
2022/07/09 02:49:46;;;;;;;;;;;;;;;;;;;;;
2022/07/09 02:55:12;;;;;;;5.10;4.10;;;;;;;12.03;82.89;99369.64;220056;1278;22572;-72
2022/07/09 03:00:39;;;;;;;7.00;4.70;;;;;;;12.09;82.94;99367.45;219956;1279;23003;-72
2022/07/09 03:06:29;;;;;;;7.80;4.30;;;;;;;12.16;82.94;99363.83;220042;1277;22546;-72
2022/07/09 03:12:13;;;;;;;5.10;4.00;;;;;;;12.22;82.60;99366.51;220066;1279;23056;-72
2022/07/09 03:17:28;;;;;;;5.80;4.30;;;;;;;12.27;82.94;99372.05;220206;1277;22579;-72
2022/07/09 03:22:35;;;;;;;12.20;4.20;;;;;;;12.32;82.95;99370.91;220204;1276;22553;-72
2022/07/09 03:27:40;;;;;;;5.60;4.40;;;;;;;12.36;83.21;99363.61;220498;1279;22564;-72
2022/07/09 03:32:59;;;;;;;7.30;4.40;;;;;;;12.42;83.59;99364.46;220342;1279;25256;-70
2022/07/09 03:38:06;;;;;;;9.40;4.60;;;;;;;12.48;83.45;99363.05;220094;1279;22721;-72
2022/07/09 03:43:09;;;;;;;6.90;4.70;;;;;;;12.53;83.40;99357.52;220267;1277;24146;-71
2022/07/09 03:48:12;;;;;;;7.80;5.50;;;;;;;12.56;83.25;99350.55;220217;1279;22505;-72
2022/07/09 03:53:15;;;;;;;8.80;5.30;;;;;;;12.59;83.38;99348.42;220236;1277;22544;-72
2022/07/09 03:58:33;;;;;;;8.40;5.60;;;;;;;12.65;83.43;99345.88;220177;1279;22593;-71
2022/07/09 04:03:36;;;;;;;10.90;6.50;;;;;;;12.72;83.62;99348.63;220271;1279;22572;-72
2022/07/09 04:08:39;;;;;;;6.90;5.40;;;;;;;12.83;83.77;99346.86;220361;1276;22642;-70
2022/07/09 04:13:44;;;;;;;7.50;4.90;;;;;;;12.92;83.67;99346.87;220457;1276;25512;-71
2022/07/09 04:18:55;;;;;;;7.70;5.50;;;;;;;12.97;83.62;99341.63;220600;1276;22564;-71
2022/07/09 04:23:58;;;;;;;6.70;5.60;;;;;;;13.06;83.70;99338.02;220408;1280;25377;-72
2022/07/09 04:29:02;;;;;;;7.40;5.30;;;;;;;13.19;83.63;99340.04;220581;1276;24085;-72
2022/07/09 04:34:05;;;;;;;7.60;5.20;;;;;;;13.38;83.87;99340.58;220543;1277;22599;-72
2022/07/09 04:39:16;;;;;;;6.80;4.90;;;;;;;13.57;83.77;99341.37;220458;1276;22672;-72
2022/07/09 04:44:19;;;;;;;6.10;5.00;;;;;;;13.72;83.57;99341.89;220440;1278;24365;-73
2022/07/09 04:49:24;;;;;;;5.90;4.30;;;;;;;13.88;83.56;99341.38;220647;1276;22571;-71
2022/07/09 04:54:29;;;;;;;6.60;5.00;;;;;;;13.98;83.13;99336.69;220630;1276;23196;-72
2022/07/09 04:59:31;;;;;;;7.00;4.90;;;;;;;14.00;82.83;99335.73;220506;1276;22553;-72
2022/07/09 05:04:35;;;;;;;8.10;5.60;;;;;;;14.16;82.93;99337.11;220264;1276;24478;-71
2022/07/09 05:09:37;;;;;;;10.40;5.70;;;;;;;14.28;82.61;99339.80;220428;1276;24270;-71
2022/07/09 05:14:40;;;;;;;8.70;6.00;;;;;;;14.38;82.28;99344.04;220437;1276;22576;-70
2022/07/09 05:19:49;;;;;;;9.30;6.00;;;;;;;14.49;82.20;99336.92;220436;1277;25507;-71
2022/07/09 05:24:51;;;;;;;6.10;4.50;;;;;;;14.61;82.11;99335.51;220791;1276;23021;-72
2022/07/09 05:29:54;;;;;;;7.70;4.80;;;;;;;14.76;82.01;99333.58;220827;1276;25358;-71
2022/07/09 05:34:56;;;;;;;6.90;4.90;;;;;;;14.93;81.82;99331.63;220700;1276;22592;-72
2022/07/09 05:40:05;;;;;;;6.80;4.50;;;;;;;15.11;81.57;99330.29;220539;1276;24271;-74
2022/07/09 05:45:11;;;;;;;6.80;4.70;;;;;;;15.29;81.08;99323.72;220631;1276;25368;-71
2022/07/09 05:50:16;;;;;;;4.00;3.60;;;;;;;15.36;80.85;99323.56;220566;1276;22690;-72
2022/07/09 05:55:19;;;;;;;5.10;3.60;;;;;;;15.51;80.67;99320.39;220533;1277;25476;-72
2022/07/09 06:00:21;;;;;;;6.20;3.70;;;;;;;15.73;80.88;99315.39;220651;1276;24906;-71
2022/07/09 06:05:25;;;;;;;6.20;3.90;;;;;;;16.04;80.27;99307.95;220590;1276;22678;-71
2022/07/09 06:10:27;;;;;;;4.50;3.30;;;;;;;16.35;79.33;99309.37;220561;1277;22603;-72
2022/07/09 06:15:30;;;;;;;4.40;3.40;;;;;;;16.78;79.35;99307.73;220518;1276;22571;-72
2022/07/09 06:20:49;;;;;;;3.90;2.90;;;;;;;17.21;78.46;99306.36;220536;1276;24312;-71
2022/07/09 06:26:01;;;;;;;5.60;3.30;;;;;;;17.53;77.48;99308.84;220684;1276;22606;-72
2022/07/09 06:31:04;;;;;;;4.90;3.20;;;;;;;17.60;76.16;99302.30;220830;1276;22756;-71
2022/07/09 06:36:07;;;;;;;5.00;3.10;;;;;;;17.59;75.66;99299.55;220703;1277;22567;-72
2022/07/09 06:41:09;;;;;;;5.50;3.10;;;;;;;17.72;75.68;99297.55;220466;1278;22667;-70
2022/07/09 06:46:20;;;;;;;5.10;3.20;;;;;;;18.15;75.84;99298.63;220585;1276;22547;-72
2022/07/09 06:51:26;;;;;;;5.90;3.10;;;;;;;18.51;74.47;99292.04;220662;1279;22611;-71
2022/07/09 06:56:31;;;;;;;4.40;2.80;;;;;;;18.95;74.26;99287.21;220595;1276;22685;-72
2022/07/09 07:01:42;;;;;;;6.00;2.70;;;;;;;19.25;72.68;99283.70;220695;1276;24232;-72
2022/07/09 07:06:46;;;;;;;6.60;3.00;;;;;;;19.35;71.76;99284.10;220875;1277;23199;-70
2022/07/09 07:11:49;;;;;;;4.10;2.80;;;;;;;19.31;70.61;99288.86;220971;1277;23429;-72
2022/07/09 07:16:52;;;;;;;3.90;2.50;;;;;;;19.21;70.69;99289.44;220821;1276;22632;-71
2022/07/09 07:21:55;;;;;;;5.30;2.50;;;;;;;19.25;70.40;99286.01;220556;1277;22697;-71
2022/07/09 07:26:58;;;;;;;4.70;2.60;;;;;;;19.46;70.03;99286.00;220442;1277;22711;-71
2022/07/09 07:32:12;;;;;;;5.70;2.70;;;;;;;19.87;69.37;99286.91;220804;1278;22630;-70
2022/07/09 07:37:14;;;;;;;5.00;2.90;;;;;;;19.93;67.56;99283.23;220165;1278;22564;-71
2022/07/09 07:42:17;;;;;;;4.20;2.80;;;;;;;19.66;67.35;99289.94;220307;1277;22560;-70
2022/07/09 07:47:22;;;;;;;4.50;2.80;;;;;;;19.59;68.06;99282.23;220417;1278;22557;-71
2022/07/09 07:52:28;;;;;;;5.40;2.50;;;;;;;19.63;67.61;99278.40;220363;1277;22737;-71
2022/07/09 07:57:30;;;;;;;3.30;2.50;;;;;;;19.71;67.15;99269.17;220128;1278;25258;-71
2022/07/09 08:02:34;;;;;;;4.90;3.30;;;;;;;19.74;66.73;99268.77;220256;1278;22579;-71
2022/07/09 08:07:36;;;;;;;3.40;2.30;;;;;;;20.04;67.39;99262.98;220195;1278;22602;-70
2022/07/09 08:12:39;;;;;;;3.80;2.70;;;;;;;20.37;65.99;99259.59;220249;1281;25257;-70
2022/07/09 08:17:41;;;;;;;3.10;2.70;;;;;;;20.59;65.47;99255.82;220404;1278;22608;-71
2022/07/09 08:22:51;;;;;;;3.70;2.30;;;;;;;20.92;65.38;99250.71;220742;1278;22580;-71
2022/07/09 08:27:53;;;;;;;3.50;2.70;;;;;;;21.31;64.23;99253.02;220498;1277;24304;-71
2022/07/09 08:32:55;;;;;;;2.70;2.50;;;;;;;21.59;63.06;99245.83;220650;1278;22609;-71
2022/07/09 08:38:11;;;;;;;2.90;2.50;;;;;;;21.71;61.65;99241.52;220376;1276;23809;-70
2022/07/09 08:43:27;;;;;;;2.20;1.80;;;;;;;21.78;61.18;99239.04;220656;1277;22570;-71
2022/07/09 08:48:34;;;;;;;3.70;2.30;;;;;;;21.83;59.98;99233.02;220647;1277;25352;-71
2022/07/09 08:53:41;;;;;;;2.20;1.50;;;;;;;21.75;58.58;99233.36;220734;1277;22582;-71
2022/07/09 08:58:43;;;;;;;2.50;1.60;;;;;;;21.78;58.80;99224.56;220875;1278;23626;-70
2022/07/09 09:03:46;;;;;;;3.00;2.40;;;;;;;21.98;57.75;99223.70;220519;1277;22623;-70
2022/07/09 09:08:48;;;;;;;4.90;3.40;;;;;;;21.87;57.17;99217.52;220406;1278;22539;-73
2022/07/09 09:13:53;;;;;;;2.00;1.90;;;;;;;21.82;56.92;99220.29;220696;1276;25319;-70
2022/07/09 09:18:56;;;;;;;3.80;3.30;;;;;;;21.93;56.11;99217.50;220697;1278;25621;-71
2022/07/09 09:23:59;;;;;;;1.40;1.20;;;;;;;21.85;56.33;99214.13;220295;1278;27863;-72
2022/07/09 09:29:04;;;;;;;1.90;1.00;;;;;;;21.89;55.53;99203.70;220513;1277;22624;-71
2022/07/09 09:34:06;;;;;;;26.50;22.00;;;;;;;21.98;54.31;99204.87;220593;1277;22572;-71
2022/07/09 09:39:15;;;;;;;5.50;3.20;;;;;;;21.85;53.47;99200.50;220757;1277;25256;-71
2022/07/09 09:44:42;;;;;;;2.20;1.90;;;;;;;21.96;53.50;99191.48;220355;1278;25256;-71
2022/07/09 09:49:50;;;;;;;2.80;1.70;;;;;;;22.26;53.28;99183.80;220610;1277;23623;-72
2022/07/09 09:54:57;;;;;;;2.00;1.20;;;;;;;22.13;52.28;99176.65;220854;1278;22555;-71
2022/07/09 10:00:01;;;;;;;1.70;1.30;;;;;;;22.19;52.26;99178.50;220995;1278;24140;-70
2022/07/09 10:05:13;;;;;;;2.50;2.00;;;;;;;21.97;51.90;99175.91;220292;1277;25346;-71
2022/07/09 10:10:18;;;;;;;3.00;2.00;;;;;;;21.67;52.46;99179.83;220571;1277;22608;-71
2022/07/09 10:15:26;;;;;;;2.10;1.80;;;;;;;21.55;52.59;99172.68;220593;1277;22581;-71
2022/07/09 10:20:36;;;;;;;1.90;0.90;;;;;;;21.22;51.83;99174.31;220700;1276;22717;-71
2022/07/09 10:25:44;;;;;;;;;;;;;;;20.91;51.28;99163.48;220791;1276;25361;-71
2022/07/09 10:31:06;;;;;;;2.50;1.80;;;;;;;21.20;51.50;99150.54;220583;1277;22580;-71
2022/07/09 10:36:16;;;;;;;1.60;1.20;;;;;;;21.80;50.81;99138.67;220599;1278;25268;-71
2022/07/09 10:41:24;;;;;;;2.50;1.10;;;;;;;22.16;49.28;99136.35;220814;1278;22606;-71
2022/07/09 10:46:28;;;;;;;1.40;1.00;;;;;;;22.07;47.06;99142.79;220683;1277;22569;-73
2022/07/09 10:51:31;;;;;;;1.50;1.00;;;;;;;21.89;45.98;99134.20;220189;1278;22547;-72
2022/07/09 10:56:38;;;;;;;1.30;1.20;;;;;;;22.04;46.63;99125.80;220363;1276;22545;-71
2022/07/09 11:01:41;;;;;;;2.60;1.60;;;;;;;22.40;47.11;99117.61;220507;1277;25319;-72
2022/07/09 11:06:51;;;;;;;1.30;1.10;;;;;;;22.29;45.70;99121.10;220043;1277;23810;-72
2022/07/09 11:11:53;;;;;;;3.50;1.60;;;;;;;21.90;46.07;99112.71;219987;1278;23963;-72
2022/07/09 11:16:58;;;;;;;1.70;1.40;;;;;;;22.10;46.69;99106.52;219947;1276;22717;-72
2022/07/09 11:22:02;;;;;;;2.10;1.10;;;;;;;22.39;44.89;99108.08;219965;1278;26499;-72
2022/07/09 11:27:06;;;;;;;1.80;1.40;;;;;;;22.48;44.68;99098.05;220177;1278;22585;-72
2022/07/09 11:32:15;;;;;;;1.80;1.40;;;;;;;22.78;44.33;99093.77;220163;1276;23529;-74
2022/07/09 11:37:36;;;;;;;2.80;2.00;;;;;;;22.87;44.49;99094.16;220241;1277;25390;-72
2022/07/09 11:43:03;;;;;;;1.80;1.70;;;;;;;22.67;43.96;99089.66;220443;1276;22538;-72
2022/07/09 11:48:51;;;;;;;2.40;1.50;;;;;;;22.54;44.65;99077.17;220024;1276;24385;-73
2022/07/09 11:53:55;;;;;;;1.70;1.60;;;;;;;22.70;41.94;99078.10;219995;1278;24303;-73
2022/07/09 11:58:57;;;;;;;1.90;1.80;;;;;;;22.86;42.22;99067.52;220067;1277;24262;-73
2022/07/09 12:04:00;;;;;;;1.80;1.40;;;;;;;23.20;42.49;99062.41;220073;1276;23127;-71
2022/07/09 12:09:07;;;;;;;2.90;2.00;;;;;;;23.45;41.83;99052.27;220374;1276;25376;-72
2022/07/09 12:14:11;;;;;;;1.60;1.50;;;;;;;23.70;41.44;99058.52;220044;1276;22761;-72
2022/07/09 12:19:17;;;;;;;1.80;1.70;;;;;;;23.68;39.58;99049.67;212609;1276;10378298;-72
2022/07/09 12:24:20;;;;;;;2.20;2.00;;;;;;;23.37;39.18;99047.21;219995;1276;22577;-72
2022/07/09 12:29:22;;;;;;;2.10;1.70;;;;;;;23.15;39.49;99048.04;220069;1277;25405;-72
2022/07/09 12:34:24;;;;;;;1.50;1.40;;;;;;;23.11;39.07;99044.46;219975;1276;24213;-72
2022/07/09 12:39:29;;;;;;;2.30;1.60;;;;;;;23.21;39.08;99041.89;220021;1276;22717;-72
2022/07/09 12:44:32;;;;;;;3.30;1.80;;;;;;;23.22;38.15;99030.91;219884;1276;24305;-72
2022/07/09 12:49:35;;;;;;;2.50;1.60;;;;;;;23.14;38.24;99025.16;220175;1276;22692;-72
2022/07/09 12:54:38;;;;;;;1.90;1.50;;;;;;;23.00;37.62;99022.96;219894;1276;22556;-73
2022/07/09 12:59:41;;;;;;;1.90;1.80;;;;;;;22.88;37.21;99021.05;219779;1277;22669;-72
2022/07/09 13:04:43;;;;;;;2.00;1.40;;;;;;;22.94;38.10;99004.60;219969;1277;22513;-72
2022/07/09 13:09:45;;;;;;;2.10;1.70;;;;;;;23.19;38.30;98999.08;220194;1276;23259;-73
2022/07/09 13:14:47;;;;;;;1.70;1.50;;;;;;;23.46;38.63;98993.37;219998;1276;22601;-73
2022/07/09 13:19:52;;;;;;;3.10;2.00;;;;;;;23.61;37.62;98992.95;219838;1276;22585;-73
2022/07/09 13:24:54;;;;;;;1.70;1.60;;;;;;;23.71;37.78;98986.11;220007;1276;26398;-72
2022/07/09 13:30:00;;;;;;;1.30;1.20;;;;;;;23.90;37.69;98988.56;219980;1276;25340;-72
2022/07/09 13:35:05;;;;;;;1.90;1.50;;;;;;;23.83;37.13;98978.62;220264;1276;25545;-72
2022/07/09 13:40:08;;;;;;;1.90;1.70;;;;;;;23.94;37.74;98970.71;220203;1276;27370;-74
2022/07/09 13:45:10;;;;;;;2.70;1.10;;;;;;;24.21;36.86;98967.48;220144;1276;26341;-73
2022/07/09 13:50:13;;;;;;;1.50;1.40;;;;;;;24.43;36.51;98961.52;220141;1276;25325;-73
2022/07/09 13:55:23;;;;;;;0.80;0.80;;;;;;;24.77;36.37;98947.60;220077;1276;22586;-72
2022/07/09 14:00:28;;;;;;;1.70;1.20;;;;;;;25.07;35.50;98950.38;219793;1276;24315;-72
2022/07/09 14:05:31;;;;;;;1.30;1.20;;;;;;;24.79;34.92;98943.46;219996;1276;22557;-73
2022/07/09 14:10:46;;;;;;;1.30;1.10;;;;;;;24.35;35.57;98942.75;219996;1276;22607;-71
2022/07/09 14:15:59;;;;;;;2.70;2.40;;;;;;;23.82;36.32;98937.34;219930;1276;25532;-73
2022/07/09 14:21:02;;;;;;;3.80;1.00;;;;;;;23.25;37.02;98941.39;219960;1276;22733;-73
2022/07/09 14:26:04;;;;;;;3.30;0.90;;;;;;;22.87;38.07;98934.34;220101;1276;22564;-72
2022/07/09 14:31:06;;;;;;;1.50;0.90;;;;;;;22.75;38.88;98932.52;219821;1276;22559;-73
2022/07/09 14:36:13;;;;;;;0.80;0.80;;;;;;;22.80;39.45;98929.24;219927;1276;25315;-71
2022/07/09 14:41:15;;;;;;;2.70;1.10;;;;;;;23.05;39.87;98928.77;219982;1276;22768;-73
2022/07/09 14:46:18;;;;;;;1.90;1.40;;;;;;;23.24;39.60;98928.65;219902;1276;24340;-72
2022/07/09 14:51:46;;;;;;;1.60;1.10;;;;;;;23.38;39.50;98919.31;220018;1276;22618;-72
2022/07/09 14:57:08;;;;;;;1.50;1.30;;;;;;;23.44;39.37;98911.02;219853;1276;22712;-71
2022/07/09 15:02:12;;;;;;;2.20;1.00;;;;;;;23.38;39.85;98912.20;219879;1277;23984;-72
2022/07/09 15:07:25;;;;;;;1.20;1.10;;;;;;;23.36;39.79;98910.52;220069;1276;25673;-73
2022/07/09 15:12:31;;;;;;;3.40;1.20;;;;;;;23.38;39.90;98912.98;219993;1276;24464;-74
2022/07/09 15:17:34;;;;;;;2.00;1.20;;;;;;;23.38;39.99;98911.34;219874;1277;25224;-72
2022/07/09 15:22:44;;;;;;;1.30;1.20;;;;;;;23.30;39.92;98912.65;220053;1276;25649;-72
2022/07/09 15:27:49;;;;;;;1.60;1.40;;;;;;;23.12;40.06;98907.00;219975;1276;25262;-73
2022/07/09 15:32:51;;;;;;;2.20;1.70;;;;;;;23.00;40.40;98904.48;219832;1276;25561;-73
2022/07/09 15:37:54;;;;;;;3.40;2.80;;;;;;;22.95;40.80;98897.07;219894;1276;23806;-72
2022/07/09 15:42:59;;;;;;;1.40;1.10;;;;;;;22.95;40.78;98892.39;219826;1276;22746;-72
2022/07/09 15:48:05;;;;;;;1.60;1.50;;;;;;;23.08;40.67;98885.92;219647;1276;22591;-71
2022/07/09 15:53:08;;;;;;;2.60;1.20;;;;;;;23.13;40.78;98880.41;219936;1276;22556;-73
2022/07/09 15:58:10;;;;;;;2.40;1.60;;;;;;;23.11;40.91;98881.00;219939;1276;22690;-73
2022/07/09 16:03:13;;;;;;;1.70;1.60;;;;;;;23.06;41.13;98873.02;219663;1276;22590;-71
2022/07/09 16:08:15;;;;;;;2.00;1.80;;;;;;;23.05;41.10;98868.96;219925;1276;22711;-72
2022/07/09 16:13:18;;;;;;;2.60;1.50;;;;;;;22.86;40.82;98869.56;219836;1276;22695;-74
2022/07/09 16:18:20;;;;;;;1.80;1.60;;;;;;;22.59;41.04;98868.85;219920;1275;22586;-73
2022/07/09 16:23:22;;;;;;;2.20;1.80;;;;;;;22.44;41.58;98868.23;219880;1276;22688;-72
2022/07/09 16:28:25;;;;;;;3.60;1.70;;;;;;;22.36;41.94;98868.25;220061;1276;22543;-73
2022/07/09 16:33:27;;;;;;;1.80;1.70;;;;;;;22.29;42.32;98868.66;219934;1275;25271;-72
2022/07/09 16:38:29;;;;;;;1.90;1.70;;;;;;;22.24;42.81;98865.38;219977;1278;25438;-72
2022/07/09 16:43:32;;;;;;;2.30;1.40;;;;;;;22.18;43.21;98866.86;219952;1276;22543;-73
2022/07/09 16:48:41;;;;;;;1.20;1.20;;;;;;;22.10;43.45;98861.88;219833;1276;24271;-71
2022/07/09 16:53:44;;;;;;;1.10;1.10;;;;;;;21.91;43.77;98862.71;220137;1276;22568;-73
2022/07/09 16:58:51;;;;;;;1.80;1.00;;;;;;;21.71;43.99;98865.30;219813;1276;25330;-72
2022/07/09 17:03:53;;;;;;;1.70;1.40;;;;;;;21.43;43.65;98862.48;219921;1276;22713;-73
2022/07/09 17:08:56;;;;;;;3.20;1.40;;;;;;;21.16;44.01;98861.63;219913;1276;22566;-73
2022/07/09 17:13:58;;;;;;;1.80;1.30;;;;;;;20.94;44.31;98857.49;220048;1276;25552;-72
2022/07/09 17:19:01;;;;;;;1.10;0.90;;;;;;;20.78;44.74;98858.94;219721;1278;25264;-72
2022/07/09 17:24:03;;;;;;;1.30;1.20;;;;;;;20.63;45.10;98857.42;219921;1276;22681;-73
2022/07/09 17:29:06;;;;;;;1.90;1.50;;;;;;;20.50;45.50;98846.14;219922;1276;24126;-72
2022/07/09 17:34:11;;;;;;;1.60;1.50;;;;;;;20.35;45.89;98845.64;220136;1276;22776;-72
2022/07/09 17:39:14;;;;;;;1.50;1.30;;;;;;;20.31;46.62;98846.55;220103;1276;25363;-72
2022/07/09 17:44:16;;;;;;;1.50;1.20;;;;;;;20.39;46.78;98851.63;220038;1276;25510;-71
2022/07/09 17:49:23;;;;;;;1.90;1.50;;;;;;;20.34;46.56;98850.29;220188;1276;22538;-72
2022/07/09 17:54:36;;;;;;;1.50;1.40;;;;;;;20.34;46.53;98855.64;220101;1276;24232;-71
2022/07/09 17:59:39;;;;;;;2.00;1.70;;;;;;;20.30;46.45;98854.92;219911;1276;22555;-72
2022/07/09 18:04:41;;;;;;;1.70;1.60;;;;;;;20.22;46.55;98856.02;219852;1276;22553;-71
2022/07/09 18:09:57;;;;;;;4.40;1.70;;;;;;;20.13;46.98;98858.55;219862;1274;25405;-71
2022/07/09 18:15:20;;;;;;;2.40;1.90;;;;;;;20.06;47.21;98854.00;219977;1276;22731;-72
2022/07/09 18:20:22;;;;;;;1.90;1.70;;;;;;;19.95;47.52;98859.64;219972;1276;24271;-72
2022/07/09 18:25:34;;;;;;;2.00;1.60;;;;;;;19.82;47.91;98855.39;219905;1276;22581;-72
2022/07/09 18:30:37;;;;;;;2.40;1.50;;;;;;;19.62;48.20;98855.02;220045;1276;22568;-73
2022/07/09 18:35:40;;;;;;;2.00;1.80;;;;;;;19.43;48.63;98859.09;220117;1276;22569;-72
2022/07/09 18:40:45;;;;;;;3.40;1.90;;;;;;;19.24;49.31;98858.08;219808;1276;22617;-71
2022/07/09 18:45:48;;;;;;;2.60;2.40;;;;;;;19.08;49.95;98856.35;219819;1276;22645;-72
2022/07/09 18:50:50;;;;;;;2.70;2.10;;;;;;;18.89;50.29;98856.11;219913;1276;22735;-71
2022/07/09 18:55:52;;;;;;;3.00;2.70;;;;;;;18.69;50.45;98859.60;219979;1276;24093;-73
2022/07/09 19:01:17;;;;;;;2.80;2.60;;;;;;;18.48;50.78;98861.19;220119;1276;22580;-72
2022/07/09 19:06:23;;;;;;;2.70;2.50;;;;;;;18.24;51.29;98861.66;220013;1276;24271;-73
2022/07/09 19:11:28;;;;;;;4.40;3.40;;;;;;;18.03;51.77;98861.84;219832;1276;23079;-71
2022/07/09 19:16:31;;;;;;;4.50;3.60;;;;;;;17.86;52.38;98863.72;219918;1276;22605;-72
2022/07/09 19:21:39;;;;;;;3.40;2.80;;;;;;;17.69;52.84;98864.74;219931;1276;24235;-72
2022/07/09 19:26:51;;;;;;;3.80;2.90;;;;;;;17.51;53.40;98862.42;219789;1276;22584;-73
2022/07/09 19:37:16;;;;;;;4.00;3.20;;;;;;;17.09;54.45;98862.27;219487;1278;24394;-73
2022/07/09 19:42:19;;;;;;;4.90;3.30;;;;;;;16.90;55.14;98856.21;219747;1278;22930;-73
2022/07/09 19:47:21;;;;;;;5.80;3.70;;;;;;;16.72;55.63;98852.48;219839;1279;25416;-72
2022/07/09 19:52:25;;;;;;;6.40;3.90;;;;;;;16.56;56.14;98852.02;219945;1279;24293;-72
2022/07/09 19:57:30;;;;;;;5.00;4.50;;;;;;;16.42;56.70;98851.08;219936;1277;22566;-71
2022/07/09 20:02:33;;;;;;;6.00;4.30;;;;;;;16.28;57.13;98854.06;219925;1276;22560;-72
2022/07/09 20:07:35;;;;;;;9.00;4.40;;;;;;;16.15;57.67;98857.64;219849;1276;22593;-73
2022/07/09 20:12:37;;;;;;;6.40;4.70;;;;;;;16.05;58.14;98860.88;219909;1276;22572;-72
2022/07/09 20:17:42;;;;;;;7.70;4.50;;;;;;;16.00;58.64;98870.91;219867;1276;25349;-72
2022/07/09 20:22:44;;;;;;;6.80;4.90;;;;;;;15.96;59.04;98875.17;219807;1276;22642;-71
2022/07/09 20:27:47;;;;;;;6.20;5.30;;;;;;;15.96;59.37;98876.00;219790;1276;22566;-72
2022/07/09 20:32:49;;;;;;;5.70;4.80;;;;;;;15.98;59.76;98880.86;220029;1276;24397;-73
2022/07/09 20:37:53;;;;;;;6.80;5.10;;;;;;;16.00;60.05;98878.13;219987;1276;24266;-72
2022/07/09 20:42:56;;;;;;;6.30;4.70;;;;;;;16.01;60.23;98875.38;219970;1276;23033;-73
2022/07/09 20:47:59;;;;;;;5.50;4.40;;;;;;;16.03;60.42;98873.06;219891;1276;24693;-72
2022/07/09 20:53:06;;;;;;;7.20;4.80;;;;;;;16.03;60.66;98871.05;219925;1276;22541;-71
2022/07/09 20:58:08;;;;;;;6.90;4.70;;;;;;;16.01;60.77;98866.02;219938;1276;23104;-72
2022/07/09 21:03:14;;;;;;;6.40;4.60;;;;;;;15.98;61.00;98863.67;219841;1276;23234;-72
2022/07/09 21:08:16;;;;;;;5.60;4.90;;;;;;;15.92;61.24;98867.58;219763;1276;22646;-72
2022/07/09 21:13:24;;;;;;;4.70;3.90;;;;;;;15.85;61.53;98866.96;219744;1276;24363;-75
2022/07/09 21:23:52;;;;;;;7.00;4.60;;;;;;;15.66;62.12;98857.65;219979;1276;22732;-73
2022/07/09 21:28:57;;;;;;;6.30;5.20;;;;;;;15.57;62.28;98857.58;219975;1276;24923;-73
2022/07/09 21:34:00;;;;;;;6.70;5.30;;;;;;;15.48;62.63;98850.17;219744;1276;23372;-72
2022/07/09 21:39:02;;;;;;;5.90;5.10;;;;;;;15.38;62.87;98848.13;219932;1276;25418;-74
2022/07/09 21:44:08;;;;;;;7.70;5.30;;;;;;;15.27;63.22;98847.33;219951;1279;22545;-72
2022/07/09 21:49:27;;;;;;;5.80;4.70;;;;;;;15.14;63.66;98846.60;220102;1276;22573;-73
2022/07/09 21:54:50;;;;;;;5.80;5.20;;;;;;;15.01;63.92;98840.84;219884;1276;25434;-72
2022/07/09 22:00:05;;;;;;;;;;;;;;;;;;;;;
2022/07/09 22:05:11;;;;;;;6.00;5.40;;;;;;;14.74;64.65;98825.66;219929;1276;25375;-73
2022/07/09 22:10:19;;;;;;;7.40;5.90;;;;;;;14.62;65.04;98825.88;219928;1276;25415;-71
2022/07/09 22:15:24;;;;;;;7.00;5.50;;;;;;;14.53;65.34;98825.97;219976;1276;22536;-73
2022/07/09 22:20:27;;;;;;;6.70;5.50;;;;;;;14.41;65.76;98821.11;219860;1277;22703;-72
2022/07/09 22:25:30;;;;;;;7.80;6.60;;;;;;;14.31;66.11;98818.16;219827;1276;24160;-73
2022/07/09 22:30:32;;;;;;;6.60;5.50;;;;;;;14.22;66.51;98815.28;219974;1276;22810;-73
2022/07/09 22:35:35;;;;;;;7.40;6.40;;;;;;;14.13;66.79;98811.85;219930;1276;25246;-72
2022/07/09 22:40:37;;;;;;;9.10;6.50;;;;;;;14.04;67.03;98808.64;219895;1276;25527;-72
2022/07/09 22:45:40;;;;;;;10.10;6.90;;;;;;;13.94;67.37;98808.25;219756;1276;25268;-72
2022/07/09 22:50:43;;;;;;;16.80;11.60;;;;;;;13.84;67.73;98805.77;219784;1276;25079;-72
2022/07/09 22:55:45;;;;;;;19.40;11.70;;;;;;;13.73;68.19;98804.27;219437;1279;22487;-73
2022/07/09 23:00:48;;;;;;;13.90;9.70;;;;;;;13.61;68.74;98798.77;219898;1276;25295;-72
2022/07/09 23:05:50;;;;;;;11.50;8.40;;;;;;;13.52;69.19;98801.72;220087;1276;25427;-73
2022/07/09 23:10:55;;;;;;;9.40;7.40;;;;;;;13.48;69.67;98797.98;219871;1278;25586;-73
2022/07/09 23:16:14;;;;;;;8.60;7.30;;;;;;;13.47;69.90;98799.76;219494;1279;22567;-72
2022/07/09 23:21:31;;;;;;;10.00;7.20;;;;;;;13.46;70.03;98798.16;219910;1279;22483;-72
2022/07/09 23:26:34;;;;;;;9.30;7.00;;;;;;;13.47;70.38;98791.59;219625;1279;22672;-72
2022/07/09 23:31:36;;;;;;;9.00;7.10;;;;;;;13.48;70.53;98789.60;219963;1278;22543;-74
2022/07/09 23:36:39;;;;;;;9.70;6.60;;;;;;;13.53;70.82;98780.27;219915;1278;25421;-73
2022/07/09 23:41:46;;;;;;;8.60;6.90;;;;;;;13.58;70.94;98781.14;219898;1279;22662;-71
2022/07/09 23:46:48;;;;;;;8.20;7.20;;;;;;;13.60;71.09;98778.27;219967;1279;22614;-72
2022/07/09 23:51:54;;;;;;;8.80;6.70;;;;;;;13.59;71.18;98776.14;219866;1278;22573;-73
2022/07/09 23:57:09;;;;;;;10.20;7.10;;;;;;;13.58;71.48;98776.23;219931;1278;22642;-73
